Berlin — 9HA2295 — position and weather

sailwx.info

Track history (hours):
 
Tides and Currents Weather Stations Pressure Air Temp Water Temp Dewpoint Dewpoint Depression Visibility Wind Speed Wind Dir Waves Ship Positions

Berlin

Last reported at 2017-Mar-24 19:33 UTC. Time now 2017-Mar-24 20:05 UTC.
Position N 40°43' E 013°44'.

Length 140 m; draft 5 m.

Type: Ship. MMSI: 248277000.

Date/timePositionNaut miles runAvg speedWind from/ knotsBaromVisibWave heightAir tempDewpointWater temp
2017-Mar-24 19:33N 40°43' E 013°44'1313.0
2017-Mar-24 18:33N 40°39' E 013°60'1414.2
2017-Mar-24 17:32N 40°47' E 014°15'3 0.7
2017-Mar-24 13:13N 40°50' E 014°16'0 0.0
2017-Mar-24 12:19N 40°50' E 014°16'0 0.0
2017-Mar-24 11:31N 40°50' E 014°16'0 0.0
2017-Mar-24 10:28N 40°50' E 014°16'0 0.0
2017-Mar-24 09:28N 40°50' E 014°16'0 0.0
2017-Mar-24 08:19N 40°50' E 014°16'0 0.0
2017-Mar-24 07:28N 40°50' E 014°16'0 0.2
2017-Mar-24 06:29N 40°50' E 014°16'7911.5
2017-Mar-23 23:33N 39°34' E 013°48'1211.5
2017-Mar-23 22:33N 39°22' E 013°48'77 8.6
2017-Mar-23 13:32N 38°08' E 013°22'0 0.0
2017-Mar-23 12:32N 38°08' E 013°22'0 0.0
2017-Mar-23 11:32N 38°08' E 013°22'0 0.0
2017-Mar-23 10:32N 38°08' E 013°22'0 0.0
2017-Mar-23 09:32N 38°08' E 013°22'3 3.2
2017-Mar-23 08:33N 38°10' E 013°24'1111.5
2017-Mar-23 07:33N 38°19' E 013°16'1414.4
2017-Mar-23 06:33N 38°17' E 012°58'1413.7
2017-Mar-23 05:31N 38°16' E 012°40'1313.1
2017-Mar-23 04:33N 38°12' E 012°24'9810.6
2017-Mar-22 19:19N 36°47' E 013°27'1213.9
2017-Mar-22 18:27N 36°39' E 013°38'1314.0
2017-Mar-22 17:33N 36°31' E 013°50'1514.7
2017-Mar-22 16:33N 36°21' E 014°04'1514.8
2017-Mar-22 15:33N 36°11' E 014°17'1414.2
2017-Mar-22 14:33N 36°01' E 014°30'7 0.3
2017-Mar-21 17:33N 35°54' E 014°32'1110.7
2017-Mar-21 16:33N 36°03' E 014°40'7213.5
2017-Mar-21 11:10N 36°59' E 015°37'1014.2
2017-Mar-21 10:30N 37°06' E 015°45'1414.5
2017-Mar-21 09:33N 37°17' E 015°55'1514.8
2017-Mar-21 08:31N 37°29' E 016°07'5014.5
2017-Mar-21 05:04N 38°08' E 016°47'10914.3
2017-Mar-20 21:27N 39°33' E 018°14'  
2017-Mar-17 23:32N 44°00' E 014°18'1111.8
2017-Mar-17 22:33N 44°05' E 014°03'1413.7
2017-Mar-17 21:33N 44°17' E 013°53'1313.6
2017-Mar-17 20:33N 44°28' E 013°43'1413.7
2017-Mar-17 19:33N 44°40' E 013°32'1413.8
2017-Mar-17 18:33N 44°51' E 013°21'1413.8
2017-Mar-17 17:33N 45°01' E 013°08'1413.9
2017-Mar-17 16:34N 45°11' E 012°54'1413.9
2017-Mar-17 15:33N 45°20' E 012°39'1212.2
2017-Mar-17 14:33N 45°26' E 012°24'4 3.7
2017-Mar-17 13:31N 45°26' E 012°18'0 0.0
2017-Mar-17 12:31N 45°26' E 012°18'0 0.0
2017-Mar-17 11:31N 45°26' E 012°18'0 0.0
2017-Mar-17 10:31N 45°26' E 012°18'0 0.0
2017-Mar-17 09:31N 45°26' E 012°18'0 0.0
2017-Mar-17 08:31N 45°26' E 012°18'0 0.0
2017-Mar-17 07:31N 45°26' E 012°18'0 0.1
2017-Mar-17 06:33N 45°26' E 012°18'6 6.2
2017-Mar-17 05:33N 45°25' E 012°27'1312.7
2017-Mar-17 04:33N 45°21' E 012°44'1211.8
2017-Mar-17 03:33N 45°11' E 012°54'1212.0
2017-Mar-17 02:33N 45°05' E 013°08'1212.3
2017-Mar-17 01:33N 44°56' E 013°21'1313.0
2017-Mar-17 00:34N 44°46' E 013°31'1313.3
2017-Mar-16 23:33N 44°34' E 013°42'1413.8
2017-Mar-16 22:33N 44°23' E 013°52'1413.9
2017-Mar-16 21:33N 44°12' E 014°03'  
Track history (hours):
 
Tides and Currents Weather Stations Pressure Air Temp Water Temp Dewpoint Dewpoint Depression Visibility Wind Speed Wind Dir Waves Ship Positions

Berlin

Last reported at 2017-Mar-24 19:33 UTC. Time now 2017-Mar-24 20:05 UTC.
Position N 40°43' E 013°44'.

Length 140 m; draft 5 m.

Type: Ship. MMSI: 248277000.

Date/timePositionNaut miles runAvg speedWind from/ knotsBaromVisibWave heightAir tempDewpointWater temp
2017-Mar-24 19:33N 40°43' E 013°44'1313.0
2017-Mar-24 18:33N 40°39' E 013°60'1414.2
2017-Mar-24 17:32N 40°47' E 014°15'3 0.7
2017-Mar-24 13:13N 40°50' E 014°16'0 0.0
2017-Mar-24 12:19N 40°50' E 014°16'0 0.0
2017-Mar-24 11:31N 40°50' E 014°16'0 0.0
2017-Mar-24 10:28N 40°50' E 014°16'0 0.0
2017-Mar-24 09:28N 40°50' E 014°16'0 0.0
2017-Mar-24 08:19N 40°50' E 014°16'0 0.0
2017-Mar-24 07:28N 40°50' E 014°16'0 0.2
2017-Mar-24 06:29N 40°50' E 014°16'7911.5
2017-Mar-23 23:33N 39°34' E 013°48'1211.5
2017-Mar-23 22:33N 39°22' E 013°48'77 8.6
2017-Mar-23 13:32N 38°08' E 013°22'0 0.0
2017-Mar-23 12:32N 38°08' E 013°22'0 0.0
2017-Mar-23 11:32N 38°08' E 013°22'0 0.0
2017-Mar-23 10:32N 38°08' E 013°22'0 0.0
2017-Mar-23 09:32N 38°08' E 013°22'3 3.2
2017-Mar-23 08:33N 38°10' E 013°24'1111.5
2017-Mar-23 07:33N 38°19' E 013°16'1414.4
2017-Mar-23 06:33N 38°17' E 012°58'1413.7
2017-Mar-23 05:31N 38°16' E 012°40'1313.1
2017-Mar-23 04:33N 38°12' E 012°24'9810.6
2017-Mar-22 19:19N 36°47' E 013°27'1213.9
2017-Mar-22 18:27N 36°39' E 013°38'1314.0
2017-Mar-22 17:33N 36°31' E 013°50'1514.7
2017-Mar-22 16:33N 36°21' E 014°04'1514.8
2017-Mar-22 15:33N 36°11' E 014°17'1414.2
2017-Mar-22 14:33N 36°01' E 014°30'7 0.3
2017-Mar-21 17:33N 35°54' E 014°32'1110.7
2017-Mar-21 16:33N 36°03' E 014°40'7213.5
2017-Mar-21 11:10N 36°59' E 015°37'1014.2
2017-Mar-21 10:30N 37°06' E 015°45'1414.5
2017-Mar-21 09:33N 37°17' E 015°55'1514.8
2017-Mar-21 08:31N 37°29' E 016°07'5014.5
2017-Mar-21 05:04N 38°08' E 016°47'10914.3
2017-Mar-20 21:27N 39°33' E 018°14'  
2017-Mar-17 23:32N 44°00' E 014°18'1111.8
2017-Mar-17 22:33N 44°05' E 014°03'1413.7
2017-Mar-17 21:33N 44°17' E 013°53'1313.6
2017-Mar-17 20:33N 44°28' E 013°43'1413.7
2017-Mar-17 19:33N 44°40' E 013°32'1413.8
2017-Mar-17 18:33N 44°51' E 013°21'1413.8
2017-Mar-17 17:33N 45°01' E 013°08'1413.9
2017-Mar-17 16:34N 45°11' E 012°54'1413.9
2017-Mar-17 15:33N 45°20' E 012°39'1212.2
2017-Mar-17 14:33N 45°26' E 012°24'4 3.7
2017-Mar-17 13:31N 45°26' E 012°18'0 0.0
2017-Mar-17 12:31N 45°26' E 012°18'0 0.0
2017-Mar-17 11:31N 45°26' E 012°18'0 0.0
2017-Mar-17 10:31N 45°26' E 012°18'0 0.0
2017-Mar-17 09:31N 45°26' E 012°18'0 0.0
2017-Mar-17 08:31N 45°26' E 012°18'0 0.0
2017-Mar-17 07:31N 45°26' E 012°18'0 0.1
2017-Mar-17 06:33N 45°26' E 012°18'6 6.2
2017-Mar-17 05:33N 45°25' E 012°27'1312.7
2017-Mar-17 04:33N 45°21' E 012°44'1211.8
2017-Mar-17 03:33N 45°11' E 012°54'1212.0
2017-Mar-17 02:33N 45°05' E 013°08'1212.3
2017-Mar-17 01:33N 44°56' E 013°21'1313.0
2017-Mar-17 00:34N 44°46' E 013°31'1313.3
2017-Mar-16 23:33N 44°34' E 013°42'1413.8
2017-Mar-16 22:33N 44°23' E 013°52'1413.9
2017-Mar-16 21:33N 44°12' E 014°03'  

Dump ship's entire track history